Time;durP1;ratioP1;P1;durP2;ratioP2;P2;SDS_P1;SDS_P2;PMS_P1;PMS_P2;Temp;Humidity;BMP_temperature;BMP_pressure;BME280_temperature;BME280_humidity;BME280_pressure;Samples;Min_cycle;Max_cycle;Signal;HPM_P1;HPM_P2
2022/06/23 00:01:01;;;;;;;4.10;3.30;;;16.80;94.10;;;;;;4985336;28;20050;-43
2022/06/23 00:03:31;;;;;;;4.70;3.05;;;16.80;94.10;;;;;;5004580;28;20104;-42
2022/06/23 00:05:59;;;;;;;4.53;3.22;;;16.70;94.10;;;;;;4994211;28;20049;-43
2022/06/23 00:08:26;;;;;;;5.18;3.83;;;16.80;94.00;;;;;;5000663;28;20121;-43
2022/06/23 00:10:55;;;;;;;5.70;3.72;;;16.70;94.20;;;;;;4990819;28;20069;-43
2022/06/23 00:13:24;;;;;;;3.88;3.03;;;16.70;94.00;;;;;;5012809;28;20041;-43
2022/06/23 00:15:51;;;;;;;4.57;3.30;;;16.70;93.80;;;;;;5002977;28;20557;-43
2022/06/23 00:18:19;;;;;;;4.07;2.80;;;16.60;93.80;;;;;;4997097;28;20054;-43
2022/06/23 00:20:48;;;;;;;4.18;2.88;;;16.70;93.80;;;;;;5010450;28;20077;-43
2022/06/23 00:23:17;;;;;;;4.85;3.33;;;16.60;93.60;;;;;;5005214;28;20046;-44
2022/06/23 00:25:46;;;;;;;3.90;2.88;;;16.60;93.80;;;;;;4976410;28;20447;-43
2022/06/23 00:28:21;;;;;;;3.70;3.03;;;16.60;93.90;;;;;;5005814;28;20074;-44
2022/06/23 00:30:52;;;;;;;5.93;3.65;;;16.60;93.90;;;;;;5006085;28;20056;-44
2022/06/23 00:33:20;;;;;;;3.92;2.90;;;16.50;94.10;;;;;;5005486;28;20050;-43
2022/06/23 00:35:47;;;;;;;5.07;2.85;;;16.50;93.90;;;;;;5006576;28;20536;-42
2022/06/23 00:38:24;;;;;;;3.63;3.15;;;16.40;93.70;;;;;;5015854;28;20065;-42
2022/06/23 00:40:50;;;;;;;4.10;3.05;;;16.40;93.80;;;;;;5034688;28;20046;-43
2022/06/23 00:43:19;;;;;;;6.15;3.83;;;16.40;94.00;;;;;;5026901;28;20485;-43
2022/06/23 00:45:47;;;;;;;4.63;3.42;;;16.30;94.50;;;;;;5013093;28;20045;-43
2022/06/23 00:48:17;;;;;;;5.55;3.50;;;16.20;94.60;;;;;;4998142;28;20049;-43
2022/06/23 00:50:47;;;;;;;7.45;3.95;;;16.20;94.80;;;;;;5006671;28;20141;-44
2022/06/23 00:53:17;;;;;;;7.05;3.67;;;16.20;95.00;;;;;;4996517;28;20769;-43
2022/06/23 00:55:46;;;;;;;5.22;3.97;;;16.10;94.90;;;;;;5024360;28;20131;-43
2022/06/23 00:58:19;;;;;;;3.85;3.30;;;16.10;95.00;;;;;;5017801;28;20119;-43
2022/06/23 01:00:46;;;;;;;7.45;3.50;;;16.10;94.70;;;;;;5011036;28;20077;-42
2022/06/23 01:03:15;;;;;;;5.63;4.70;;;16.00;95.00;;;;;;4984705;28;20133;-43
2022/06/23 01:05:43;;;;;;;5.95;3.80;;;16.00;95.70;;;;;;4995069;28;20141;-43
2022/06/23 01:08:13;;;;;;;4.18;3.22;;;15.90;95.80;;;;;;4996341;28;20084;-43
2022/06/23 01:10:43;;;;;;;6.97;3.97;;;15.90;95.80;;;;;;4989326;28;20091;-42
2022/06/23 01:13:14;;;;;;;5.88;5.13;;;15.80;96.10;;;;;;5013541;28;20045;-43
2022/06/23 01:15:43;;;;;;;5.10;3.38;;;15.80;96.50;;;;;;5010466;28;20084;-43
2022/06/23 01:18:14;;;;;;;8.45;5.00;;;15.70;96.30;;;;;;5013514;28;20046;-41
2022/06/23 01:20:47;;;;;;;9.23;5.32;;;15.60;97.00;;;;;;4996000;28;20085;-42
2022/06/23 01:23:37;;;;;;;7.45;4.03;;;15.50;97.50;;;;;;5010257;28;20042;-42
2022/06/23 01:26:20;;;;;;;6.00;4.55;;;15.50;97.20;;;;;;5007939;28;20073;-42
2022/06/23 01:28:48;;;;;;;6.18;3.58;;;15.40;97.30;;;;;;5010214;28;20541;-43
2022/06/23 01:31:17;;;;;;;6.38;4.95;;;15.40;97.00;;;;;;5011696;28;20121;-43
2022/06/23 01:33:45;;;;;;;4.88;3.42;;;15.40;97.50;;;;;;4987422;28;20386;-42
2022/06/23 01:36:14;;;;;;;5.75;4.00;;;15.40;97.20;;;;;;5010840;28;20443;-43
2022/06/23 01:38:49;;;;;;;8.13;4.50;;;15.40;97.00;;;;;;4982749;28;20082;-43
2022/06/23 01:41:19;;;;;;;6.20;4.15;;;15.40;97.40;;;;;;4987300;28;20077;-43
2022/06/23 01:43:51;;;;;;;6.20;3.92;;;15.30;97.20;;;;;;4976291;28;20046;-42
2022/06/23 01:46:21;;;;;;;4.22;3.53;;;15.30;97.00;;;;;;4991760;28;20061;-42
2022/06/23 01:48:52;;;;;;;5.07;3.85;;;15.30;96.80;;;;;;4989448;28;20112;-42
2022/06/23 01:51:26;;;;;;;5.88;4.45;;;15.30;97.00;;;;;;4989821;28;20108;-42
2022/06/23 01:53:54;;;;;;;5.93;4.70;;;15.30;97.10;;;;;;4990349;28;20038;-43
2022/06/23 01:56:28;;;;;;;7.53;4.78;;;15.20;97.10;;;;;;4992298;28;20034;-42
2022/06/23 01:59:02;;;;;;;7.00;5.00;;;15.20;96.80;;;;;;4990775;28;20381;-43
2022/06/23 02:01:32;;;;;;;7.25;5.43;;;15.20;96.90;;;;;;4973799;28;20046;-43
2022/06/23 02:04:03;;;;;;;6.10;5.00;;;15.30;96.90;;;;;;4973752;28;20054;-42
2022/06/23 02:06:31;;;;;;;4.82;4.15;;;15.20;96.80;;;;;;4987327;28;20100;-42
2022/06/23 02:09:04;;;;;;;7.72;5.10;;;15.20;96.60;;;;;;4991823;28;20073;-44
2022/06/23 02:11:33;;;;;;;9.73;5.55;;;15.20;96.70;;;;;;4966890;28;20050;-44
2022/06/23 02:14:05;;;;;;;9.05;6.55;;;15.20;97.00;;;;;;4972791;28;20141;-44
2022/06/23 02:16:34;;;;;;;9.13;6.13;;;15.20;97.50;;;;;;4989284;28;20042;-44
2022/06/23 02:19:05;;;;;;;5.85;5.03;;;15.10;97.30;;;;;;4988685;28;20081;-42
2022/06/23 02:21:35;;;;;;;6.78;5.43;;;15.10;97.00;;;;;;4975660;28;20078;-42
2022/06/23 02:24:05;;;;;;;6.35;4.88;;;15.10;97.00;;;;;;4991015;28;20049;-42
2022/06/23 02:26:33;;;;;;;7.40;5.90;;;15.10;96.90;;;;;;4992918;28;20077;-43
2022/06/23 02:29:08;;;;;;;7.70;6.07;;;15.10;96.80;;;;;;4991210;28;20085;-42
2022/06/23 02:31:39;;;;;;;9.45;5.63;;;15.00;97.00;;;;;;4974849;28;20426;-43
2022/06/23 02:34:07;;;;;;;7.15;5.97;;;15.00;97.10;;;;;;4972929;28;20054;-44
2022/06/23 02:36:53;;;;;;;8.95;4.93;;;15.00;97.20;;;;;;4992234;28;20042;-43
2022/06/23 02:39:25;;;;;;;7.20;5.50;;;15.00;96.90;;;;;;4990311;28;20141;-43
2022/06/23 02:41:53;;;;;;;6.60;5.10;;;15.00;96.90;;;;;;4999973;28;20049;-43
2022/06/23 02:44:30;;;;;;;7.70;5.93;;;14.90;96.70;;;;;;5009952;28;20073;-43
2022/06/23 02:47:07;;;;;;;6.65;5.97;;;15.00;96.80;;;;;;4992780;28;20074;-43
2022/06/23 02:50:17;;;;;;;6.32;5.40;;;14.90;96.90;;;;;;4994180;28;20045;-43
2022/06/23 02:53:06;;;;;;;8.70;5.32;;;14.90;96.30;;;;;;4947201;28;20105;-43
2022/06/23 02:55:46;;;;;;;7.00;5.68;;;14.90;96.90;;;;;;5002816;28;20120;-43
2022/06/23 02:58:14;;;;;;;9.30;6.95;;;14.90;96.80;;;;;;5008953;28;20089;-43
2022/06/23 03:00:44;;;;;;;8.98;6.85;;;14.80;97.40;;;;;;5011190;28;20053;-42
2022/06/23 03:03:15;;;;;;;7.78;6.22;;;14.80;97.60;;;;;;5005566;28;20548;-43
2022/06/23 03:05:45;;;;;;;9.15;6.75;;;14.70;97.50;;;;;;5010207;28;20046;-42
2022/06/23 03:08:18;;;;;;;8.90;7.38;;;14.70;97.90;;;;;;5011433;28;20038;-43
2022/06/23 03:10:48;;;;;;;7.25;5.90;;;14.60;98.20;;;;;;4994834;28;20069;-43
2022/06/23 03:13:18;;;;;;;10.23;7.65;;;14.60;98.10;;;;;;5010311;28;20053;-42
2022/06/23 03:15:49;;;;;;;10.40;9.30;;;14.60;98.40;;;;;;5009278;28;20096;-42
2022/06/23 03:18:18;;;;;;;10.27;7.15;;;14.60;99.00;;;;;;5011649;28;20540;-42
2022/06/23 03:20:48;;;;;;;7.85;6.65;;;14.60;98.70;;;;;;5010277;28;20050;-43
2022/06/23 03:23:18;;;;;;;11.55;7.82;;;14.60;98.30;;;;;;5011286;28;20119;-44
2022/06/23 03:25:48;;;;;;;9.15;7.93;;;14.60;98.30;;;;;;5009582;28;20077;-43
2022/06/23 03:28:18;;;;;;;9.73;7.00;;;14.60;98.50;;;;;;4994005;28;20049;-43
2022/06/23 03:30:48;;;;;;;8.13;6.78;;;14.60;98.50;;;;;;5008976;28;20128;-43
2022/06/23 03:33:18;;;;;;;8.80;7.90;;;14.50;98.30;;;;;;5012338;28;20077;-43
2022/06/23 03:35:48;;;;;;;10.77;8.70;;;14.50;98.40;;;;;;5007641;28;20080;-43
2022/06/23 03:38:19;;;;;;;9.90;7.70;;;14.50;98.50;;;;;;5006766;28;20470;-42
2022/06/23 03:43:40;;;;;;;7.90;6.43;;;14.50;98.70;;;;;;5010559;28;20077;-42
2022/06/23 03:46:15;;;;;;;12.43;9.02;;;14.50;98.20;;;;;;5008277;28;20465;-42
2022/06/23 03:48:44;;;;;;;11.20;8.52;;;14.50;98.80;;;;;;5011360;28;20124;-43
2022/06/23 03:51:13;;;;;;;13.52;9.55;;;14.40;99.00;;;;;;4990643;28;20061;-42
2022/06/23 03:53:49;;;;;;;13.60;9.70;;;14.40;99.20;;;;;;5014152;28;20073;-41
2022/06/23 03:56:17;;;;;;;11.63;9.15;;;14.40;99.70;;;;;;5012008;28;20470;-43
2022/06/23 03:58:46;;;;;;;9.98;7.88;;;14.30;99.70;;;;;;5013768;28;20077;-42
2022/06/23 04:01:17;;;;;;;12.52;8.77;;;14.30;99.50;;;;;;5007840;28;20435;-43
2022/06/23 04:03:45;;;;;;;12.30;8.95;;;14.40;99.60;;;;;;4995679;28;20053;-42
2022/06/23 04:06:24;;;;;;;12.27;10.05;;;14.30;99.60;;;;;;5012865;28;20092;-43
2022/06/23 04:09:00;;;;;;;13.27;9.30;;;14.40;99.90;;;;;;5011441;28;20497;-43
2022/06/23 04:11:45;;;;;;;11.43;9.02;;;14.40;99.90;;;;;;5015514;28;20100;-42
2022/06/23 04:14:19;;;;;;;11.88;9.20;;;14.40;99.70;;;;;;4995662;28;20108;-42
2022/06/23 04:16:48;;;;;;;13.07;10.02;;;14.40;99.70;;;;;;4994529;28;20077;-43
2022/06/23 04:19:17;;;;;;;13.63;10.27;;;14.40;99.90;;;;;;4993051;28;20496;-42
2022/06/23 04:21:46;;;;;;;12.43;9.32;;;14.40;99.90;;;;;;4995528;28;20077;-43
2022/06/23 04:24:16;;;;;;;9.88;8.38;;;14.40;99.90;;;;;;4995647;28;20089;-42
2022/06/23 04:26:43;;;;;;;11.93;8.80;;;14.40;99.90;;;;;;4996990;28;20481;-43
2022/06/23 04:29:11;;;;;;;9.05;7.80;;;14.40;99.90;;;;;;4995063;28;20104;-42
2022/06/23 04:31:41;;;;;;;12.43;10.57;;;14.40;99.90;;;;;;4993567;28;20478;-42
2022/06/23 04:34:14;;;;;;;11.77;9.07;;;14.40;99.90;;;;;;5001286;28;20050;-42
2022/06/23 04:36:43;;;;;;;11.70;9.40;;;14.40;99.90;;;;;;5011356;28;20121;-43
2022/06/23 04:39:19;;;;;;;12.32;10.25;;;14.40;99.90;;;;;;4979202;28;20066;-43
2022/06/23 04:41:47;;;;;;;16.65;11.07;;;14.40;99.90;;;;;;4993532;28;20058;-43
2022/06/23 04:44:15;;;;;;;13.93;10.38;;;14.40;99.90;;;;;;4977281;28;20039;-43
2022/06/23 04:46:42;;;;;;;14.32;10.40;;;14.40;99.90;;;;;;4992993;28;20133;-43
2022/06/23 04:49:17;;;;;;;16.30;11.07;;;14.50;99.90;;;;;;4993264;28;20054;-42
2022/06/23 04:51:48;;;;;;;9.70;7.70;;;14.50;99.90;;;;;;4975635;28;20057;-43
2022/06/23 04:54:16;;;;;;;14.18;11.02;;;14.60;99.90;;;;;;4994382;28;20069;-42
2022/06/23 04:56:45;;;;;;;13.75;10.60;;;14.60;99.90;;;;;;4975388;28;20126;-42
2022/06/23 04:59:24;;;;;;;16.60;11.57;;;14.60;99.90;;;;;;4975950;28;20061;-43
2022/06/23 05:01:52;;;;;;;16.52;10.38;;;14.70;99.90;;;;;;4985662;28;20062;-44
2022/06/23 05:04:21;;;;;;;13.63;11.05;;;14.70;99.90;;;;;;4974750;28;20096;-44
2022/06/23 05:06:49;;;;;;;15.35;10.02;;;14.80;99.90;;;;;;4986058;28;20431;-43
2022/06/23 05:09:19;;;;;;;14.80;10.23;;;14.90;99.90;;;;;;4992647;28;20529;-43
2022/06/23 05:11:48;;;;;;;15.80;9.88;;;14.90;99.90;;;;;;4988391;28;20058;-43
2022/06/23 05:14:18;;;;;;;17.23;11.85;;;14.90;99.90;;;;;;4985812;28;20491;-43
2022/06/23 05:16:47;;;;;;;14.77;11.30;;;15.00;99.90;;;;;;4989102;28;20394;-44
2022/06/23 05:19:17;;;;;;;16.40;11.25;;;15.10;99.90;;;;;;4990200;28;20069;-44
2022/06/23 05:21:47;;;;;;;14.85;10.90;;;15.20;99.90;;;;;;4976144;28;20134;-44
2022/06/23 05:24:15;;;;;;;13.90;11.05;;;15.20;99.90;;;;;;4991053;28;20080;-44
2022/06/23 05:26:44;;;;;;;13.43;10.40;;;15.40;99.90;;;;;;4980692;28;20513;-43
2022/06/23 05:29:14;;;;;;;17.40;11.90;;;15.50;99.90;;;;;;4991897;28;20081;-44
2022/06/23 05:31:40;;;;;;;17.17;11.43;;;15.60;99.90;;;;;;4975199;28;20470;-43
2022/06/23 05:34:09;;;;;;;13.05;10.18;;;15.70;99.90;;;;;;4992286;28;20058;-44
2022/06/23 05:36:38;;;;;;;13.95;10.90;;;15.80;99.90;;;;;;4976081;28;20497;-43
2022/06/23 05:39:12;;;;;;;14.40;11.07;;;15.90;99.90;;;;;;4986389;28;20070;-43
2022/06/23 05:41:41;;;;;;;12.77;10.65;;;16.10;99.90;;;;;;5003033;28;20049;-44
2022/06/23 05:44:10;;;;;;;16.85;11.50;;;16.20;99.90;;;;;;5010884;28;20069;-43
2022/06/23 05:46:40;;;;;;;13.15;10.85;;;16.30;99.90;;;;;;4995730;28;20089;-44
2022/06/23 05:49:13;;;;;;;15.95;11.32;;;16.40;99.90;;;;;;5011014;28;20072;-43
2022/06/23 05:51:42;;;;;;;13.75;10.20;;;16.60;99.90;;;;;;5007495;28;20655;-44
2022/06/23 05:54:15;;;;;;;15.35;10.80;;;16.70;99.90;;;;;;5011328;28;20050;-43
2022/06/23 05:56:47;;;;;;;13.95;10.55;;;16.80;99.90;;;;;;5008144;28;20053;-43
2022/06/23 05:59:16;;;;;;;16.00;10.98;;;17.00;99.90;;;;;;5012328;28;20061;-43
2022/06/23 06:01:46;;;;;;;17.42;11.02;;;17.10;99.90;;;;;;5010885;28;20049;-44
2022/06/23 06:04:16;;;;;;;27.95;10.68;;;17.20;99.90;;;;;;5012347;28;20077;-41
2022/06/23 06:06:45;;;;;;;15.57;10.77;;;17.40;99.90;;;;;;5010770;28;20092;-44
2022/06/23 06:12:00;;;;;;;12.52;9.40;;;17.60;99.90;;;;;;4994119;28;20038;-42
2022/06/23 06:14:27;;;;;;;17.15;9.13;;;17.80;99.90;;;;;;5010376;28;20441;-42
2022/06/23 06:16:57;;;;;;;14.18;9.70;;;17.90;99.90;;;;;;5012102;28;20045;-41
2022/06/23 06:19:24;;;;;;;13.27;8.90;;;18.10;99.90;;;;;;4994939;28;20050;-42
2022/06/23 06:21:52;;;;;;;10.82;8.65;;;18.20;99.90;;;;;;4994935;28;20429;-42
2022/06/23 06:24:23;;;;;;;10.65;8.05;;;18.30;99.90;;;;;;5013207;28;20092;-42
2022/06/23 06:26:52;;;;;;;10.57;8.05;;;18.50;99.90;;;;;;4995621;28;20053;-42
2022/06/23 06:29:20;;;;;;;10.30;8.40;;;18.70;99.90;;;;;;5013095;28;20081;-42
2022/06/23 06:31:50;;;;;;;11.73;8.32;;;18.80;99.90;;;;;;4993248;28;20049;-42
2022/06/23 06:34:20;;;;;;;12.23;7.65;;;19.00;99.90;;;;;;5010155;28;20045;-43
2022/06/23 06:36:48;;;;;;;12.63;8.18;;;19.10;99.40;;;;;;5010017;28;20078;-42
2022/06/23 06:39:17;;;;;;;13.38;7.53;;;19.20;99.20;;;;;;4994056;28;20101;-42
2022/06/23 06:41:47;;;;;;;10.98;7.38;;;19.40;98.90;;;;;;4994632;28;20074;-43
2022/06/23 06:44:15;;;;;;;9.27;7.70;;;19.50;98.50;;;;;;4992202;28;20109;-44
2022/06/23 06:46:42;;;;;;;13.90;7.88;;;19.70;98.20;;;;;;5006803;28;20099;-43
2022/06/23 06:49:10;;;;;;;9.88;7.60;;;19.80;97.60;;;;;;5009547;28;20665;-42
2022/06/23 06:51:37;;;;;;;11.77;8.30;;;19.90;97.50;;;;;;4992461;28;20081;-43
2022/06/23 06:54:06;;;;;;;12.98;7.88;;;20.10;97.30;;;;;;4990686;28;20069;-44
2022/06/23 06:56:37;;;;;;;12.88;7.75;;;20.30;96.80;;;;;;4992519;28;20089;-43
2022/06/23 06:59:10;;;;;;;11.20;7.50;;;20.40;96.40;;;;;;4991630;28;20110;-43
2022/06/23 07:01:37;;;;;;;8.98;7.60;;;20.60;96.10;;;;;;4989869;28;20051;-43
2022/06/23 07:04:03;;;;;;;11.85;7.95;;;20.70;95.80;;;;;;5009166;28;20497;-43
2022/06/23 07:06:33;;;;;;;13.45;7.47;;;20.80;95.70;;;;;;4989391;28;20537;-43
2022/06/23 07:09:04;;;;;;;13.65;7.60;;;20.90;95.50;;;;;;5009967;28;20482;-43
2022/06/23 07:11:34;;;;;;;12.48;7.55;;;21.00;95.30;;;;;;5009762;28;20131;-44
2022/06/23 07:14:02;;;;;;;12.38;6.45;;;21.20;94.80;;;;;;5011980;28;20046;-44
2022/06/23 07:16:35;;;;;;;12.80;7.53;;;21.40;94.90;;;;;;5009840;28;20433;-43
2022/06/23 07:19:04;;;;;;;9.95;6.55;;;21.60;94.50;;;;;;5016467;28;20389;-43
2022/06/23 07:21:34;;;;;;;14.70;7.30;;;21.80;94.20;;;;;;5008494;28;20088;-44
2022/06/23 07:24:11;;;;;;;9.98;6.35;;;22.00;94.10;;;;;;5009394;28;20042;-43
2022/06/23 07:26:41;;;;;;;12.57;6.97;;;22.20;93.90;;;;;;4994639;28;20479;-43
2022/06/23 07:29:25;;;;;;;8.00;5.60;;;22.30;93.30;;;;;;5013752;28;20589;-43
2022/06/23 07:32:00;;;;;;;10.18;6.70;;;22.50;93.00;;;;;;5014120;28;20296;-44
2022/06/23 07:34:27;;;;;;;11.27;6.35;;;22.70;91.90;;;;;;4996760;28;20120;-44
2022/06/23 07:36:56;;;;;;;11.05;5.50;;;22.70;91.40;;;;;;4994608;28;20073;-43
2022/06/23 07:39:24;;;;;;;9.45;6.13;;;22.80;91.60;;;;;;5012579;28;20082;-43
2022/06/23 07:41:53;;;;;;;7.47;5.47;;;23.10;91.30;;;;;;4997773;28;20049;-44
2022/06/23 07:44:22;;;;;;;7.22;5.53;;;23.20;90.50;;;;;;5013118;28;20115;-43
2022/06/23 07:46:48;;;;;;;16.02;5.57;;;23.30;89.90;;;;;;4996558;28;20041;-43
2022/06/23 07:49:17;;;;;;;9.35;5.10;;;23.40;89.50;;;;;;4998271;28;20493;-43
2022/06/23 07:51:44;;;;;;;9.82;5.72;;;23.50;89.80;;;;;;4996097;28;20096;-43
2022/06/23 07:54:11;;;;;;;8.50;4.45;;;23.60;88.90;;;;;;5016120;28;20046;-44
2022/06/23 07:56:39;;;;;;;8.52;5.25;;;23.80;89.10;;;;;;4998173;28;20482;-44
2022/06/23 07:59:08;;;;;;;8.20;4.25;;;23.90;88.10;;;;;;4993080;28;20046;-44
2022/06/23 08:01:38;;;;;;;8.45;4.50;;;24.10;88.00;;;;;;5009442;28;20057;-43
2022/06/23 08:04:08;;;;;;;10.02;4.70;;;24.30;87.30;;;;;;4980571;28;20054;-43
2022/06/23 08:06:36;;;;;;;9.73;4.30;;;24.50;85.90;;;;;;5008184;28;20046;-44
2022/06/23 08:09:17;;;;;;;8.88;4.90;;;24.70;86.40;;;;;;5015853;28;20390;-44
2022/06/23 08:14:30;;;;;;;6.80;3.90;;;25.00;82.90;;;;;;5013804;28;20046;-43
2022/06/23 08:16:56;;;;;;;4.95;3.03;;;25.00;82.10;;;;;;5013084;28;20168;-43
2022/06/23 08:19:29;;;;;;;6.25;3.25;;;25.10;81.70;;;;;;4993195;28;20048;-43
2022/06/23 08:22:00;;;;;;;9.88;4.00;;;25.30;80.70;;;;;;5009810;28;20501;-42
2022/06/23 08:24:27;;;;;;;8.27;3.83;;;25.40;79.50;;;;;;4997470;28;20057;-42
2022/06/23 08:26:56;;;;;;;5.30;3.30;;;25.60;78.40;;;;;;4997396;28;20042;-42
2022/06/23 08:29:25;;;;;;;7.93;3.58;;;25.70;78.10;;;;;;5013861;28;20081;-42
2022/06/23 08:31:52;;;;;;;8.73;3.53;;;25.80;77.10;;;;;;5014915;28;20064;-43
2022/06/23 08:34:19;;;;;;;7.32;2.85;;;25.90;76.20;;;;;;5015213;28;20386;-43
2022/06/23 08:36:47;;;;;;;7.45;3.13;;;25.90;75.80;;;;;;5014668;28;20429;-43
2022/06/23 08:39:16;;;;;;;7.90;2.80;;;26.00;76.20;;;;;;5011758;28;20108;-42
2022/06/23 08:41:45;;;;;;;8.35;3.42;;;26.10;75.40;;;;;;4995944;28;20116;-43
2022/06/23 08:44:15;;;;;;;7.25;3.08;;;26.30;75.60;;;;;;5013955;28;20042;-44
2022/06/23 08:46:44;;;;;;;7.25;3.38;;;26.40;75.50;;;;;;5013433;28;20466;-43
2022/06/23 08:49:13;;;;;;;5.30;2.80;;;26.60;74.40;;;;;;4996316;28;20046;-43
2022/06/23 08:51:46;;;;;;;6.90;3.30;;;26.70;73.40;;;;;;4997318;28;20116;-43
2022/06/23 08:54:18;;;;;;;5.15;3.60;;;26.80;72.50;;;;;;5013806;28;20104;-44
2022/06/23 08:56:49;;;;;;;7.10;3.55;;;27.00;72.50;;;;;;5014388;28;20096;-43
2022/06/23 08:59:19;;;;;;;4.95;2.80;;;27.10;72.00;;;;;;5013981;28;20046;-44
2022/06/23 09:01:47;;;;;;;7.32;3.50;;;27.30;72.90;;;;;;5012665;28;20050;-44
2022/06/23 09:04:18;;;;;;;10.40;3.40;;;27.50;72.00;;;;;;5014447;28;20398;-44
2022/06/23 09:06:48;;;;;;;8.32;3.47;;;27.70;70.20;;;;;;5014465;28;20208;-43
2022/06/23 09:09:23;;;;;;;9.60;3.20;;;27.80;69.80;;;;;;4997048;28;20386;-44
2022/06/23 09:11:55;;;;;;;10.30;3.65;;;27.90;70.20;;;;;;4996232;28;20477;-43
2022/06/23 09:14:42;;;;;;;4.80;3.22;;;28.10;69.10;;;;;;4996166;28;20057;-44
2022/06/23 09:17:27;;;;;;;9.35;3.35;;;28.20;68.00;;;;;;4996900;28;20041;-43
2022/06/23 09:20:01;;;;;;;4.18;2.80;;;28.30;65.60;;;;;;5014186;28;20060;-43
2022/06/23 09:22:48;;;;;;;6.93;3.17;;;28.30;67.10;;;;;;4996404;28;20050;-43
2022/06/23 09:25:18;;;;;;;9.30;2.70;;;28.50;66.10;;;;;;4993643;28;20086;-43
2022/06/23 09:27:58;;;;;;;6.65;2.75;;;28.60;65.70;;;;;;5009711;28;20081;-43
2022/06/23 09:30:33;;;;;;;4.38;2.42;;;28.80;65.60;;;;;;4996535;28;20054;-43
2022/06/23 09:33:01;;;;;;;5.43;2.80;;;29.00;64.60;;;;;;4996795;28;20108;-43
2022/06/23 09:35:50;;;;;;;7.22;2.83;;;29.10;62.60;;;;;;5012722;28;20046;-43
2022/06/23 09:38:45;;;;;;;6.45;2.65;;;29.10;62.80;;;;;;4994699;28;20050;-44
2022/06/23 09:41:21;;;;;;;7.13;2.90;;;29.20;63.00;;;;;;4975088;28;20065;-43
2022/06/23 09:44:01;;;;;;;4.50;2.30;;;29.40;61.90;;;;;;4973963;28;20093;-43
2022/06/23 09:46:46;;;;;;;5.03;2.92;;;29.50;61.70;;;;;;4993942;28;20050;-43
2022/06/23 09:49:18;;;;;;;5.90;2.50;;;29.60;61.30;;;;;;4991407;28;20509;-42
2022/06/23 09:52:13;;;;;;;6.78;2.45;;;29.60;59.90;;;;;;4973720;28;20468;-43
2022/06/23 09:55:17;;;;;;;8.40;2.50;;;29.70;61.20;;;;;;4972956;28;20082;-43
2022/06/23 09:58:07;;;;;;;9.70;3.08;;;29.80;60.00;;;;;;4905147;29;20507;-44
2022/06/23 10:00:39;;;;;;;7.75;2.90;;;30.00;58.10;;;;;;4986271;28;20058;-44
2022/06/23 10:03:13;;;;;;;7.30;2.78;;;30.00;58.20;;;;;;4988725;28;20066;-44
2022/06/23 10:05:53;;;;;;;5.68;2.92;;;30.10;58.70;;;;;;4972631;28;20058;-44
2022/06/23 10:08:40;;;;;;;6.90;2.72;;;30.20;57.50;;;;;;4999041;28;20453;-44
2022/06/23 10:11:38;;;;;;;5.82;2.28;;;30.20;57.20;;;;;;4973017;28;20062;-43
2022/06/23 10:14:16;;;;;;;5.60;2.22;;;30.30;57.80;;;;;;4972447;28;20054;-44
2022/06/23 10:16:53;;;;;;;5.68;2.97;;;30.30;58.20;;;;;;4972547;28;20043;-44
2022/06/23 10:19:40;;;;;;;5.75;3.03;;;30.40;56.60;;;;;;4994459;28;20080;-44
2022/06/23 10:22:16;;;;;;;6.10;2.70;;;30.50;58.40;;;;;;4988809;28;20061;-44
2022/06/23 10:24:57;;;;;;;7.55;2.83;;;30.70;56.80;;;;;;4993723;28;20434;-44
2022/06/23 10:27:32;;;;;;;11.93;3.45;;;30.80;57.50;;;;;;4993598;28;20121;-44
2022/06/23 10:30:14;;;;;;;10.00;3.22;;;30.90;56.10;;;;;;4982380;28;20053;-43
2022/06/23 10:33:05;;;;;;;4.40;2.60;;;31.00;56.50;;;;;;4976457;28;20966;-44
2022/06/23 10:35:45;;;;;;;7.30;3.00;;;30.90;56.60;;;;;;4987846;28;20126;-44
2022/06/23 10:38:31;;;;;;;7.27;3.27;;;31.00;56.10;;;;;;4981446;28;20509;-44
2022/06/23 10:41:10;;;;;;;13.15;3.50;;;31.10;53.20;;;;;;5012977;28;20771;-44
2022/06/23 10:43:57;;;;;;;5.63;2.85;;;31.20;54.70;;;;;;5012872;28;20123;-44
2022/06/23 10:46:29;;;;;;;9.30;2.92;;;31.30;55.00;;;;;;5013159;28;20041;-44
2022/06/23 10:49:18;;;;;;;13.70;2.75;;;31.50;54.30;;;;;;4991674;28;20058;-44
2022/06/23 10:52:05;;;;;;;5.63;2.45;;;31.60;53.30;;;;;;4964673;28;20088;-44
2022/06/23 10:55:07;;;;;;;6.07;2.38;;;31.70;52.40;;;;;;4990094;28;20068;-44
2022/06/23 10:58:01;;;;;;;7.93;2.85;;;31.80;54.20;;;;;;4978961;28;20085;-44
2022/06/23 11:00:31;;;;;;;3.78;2.42;;;32.10;53.80;;;;;;4969022;28;20085;-44
2022/06/23 11:03:25;;;;;;;5.45;2.28;;;32.20;52.50;;;;;;4993004;28;20046;-44
2022/06/23 11:06:08;;;;;;;4.07;2.50;;;32.30;51.50;;;;;;4992235;28;20078;-44
2022/06/23 11:08:55;;;;;;;5.80;2.10;;;32.40;52.30;;;;;;4989830;28;20488;-44
2022/06/23 11:11:52;;;;;;;6.35;2.10;;;32.60;51.70;;;;;;4996818;28;20169;-44
2022/06/23 11:14:26;;;;;;;4.90;2.40;;;32.70;51.50;;;;;;4975759;28;20086;-44
2022/06/23 11:16:57;;;;;;;5.43;2.63;;;32.70;49.50;;;;;;4996772;28;20051;-45
2022/06/23 11:19:35;;;;;;;5.60;2.30;;;32.60;49.90;;;;;;4978195;28;20565;-44
2022/06/23 11:22:10;;;;;;;5.93;2.35;;;32.70;49.20;;;;;;4996911;28;20050;-44
2022/06/23 11:24:42;;;;;;;4.85;2.15;;;32.60;49.20;;;;;;4976771;28;20476;-44
2022/06/23 11:27:13;;;;;;;7.38;2.40;;;32.60;49.90;;;;;;4993809;28;20084;-44
2022/06/23 11:29:54;;;;;;;6.00;2.65;;;32.70;49.30;;;;;;4996770;28;20038;-43
2022/06/23 11:32:28;;;;;;;3.83;2.33;;;32.70;49.20;;;;;;4995275;28;20136;-44
2022/06/23 11:35:07;;;;;;;4.80;2.05;;;32.80;49.20;;;;;;4995796;28;20439;-44
2022/06/23 11:37:44;;;;;;;7.18;2.85;;;32.80;48.80;;;;;;5002036;28;20046;-44
2022/06/23 11:40:31;;;;;;;4.57;2.00;;;32.80;48.70;;;;;;4987451;28;20109;-44
2022/06/23 11:43:07;;;;;;;6.32;2.00;;;32.90;48.90;;;;;;4979102;28;20054;-44
2022/06/23 11:45:40;;;;;;;4.63;1.92;;;33.10;48.50;;;;;;4996460;28;20054;-44
2022/06/23 11:48:17;;;;;;;5.55;2.10;;;33.20;48.30;;;;;;4996380;28;20105;-44
2022/06/23 11:50:48;;;;;;;5.68;2.08;;;33.50;48.30;;;;;;4996172;28;20549;-44
2022/06/23 11:53:24;;;;;;;7.72;2.72;;;33.60;48.20;;;;;;5000572;28;20066;-44
2022/06/23 11:55:53;;;;;;;6.25;2.40;;;33.70;47.80;;;;;;5012376;28;20041;-44
2022/06/23 11:58:34;;;;;;;6.63;2.38;;;33.70;46.70;;;;;;5015780;28;20042;-44
2022/06/23 12:01:07;;;;;;;4.53;2.03;;;33.70;47.00;;;;;;4982311;28;20050;-44
2022/06/23 12:04:03;;;;;;;11.82;2.45;;;33.70;46.10;;;;;;4978891;28;20494;-44
2022/06/23 12:06:36;;;;;;;7.55;2.50;;;33.80;47.40;;;;;;4994294;28;20046;-44
2022/06/23 12:09:07;;;;;;;8.88;1.88;;;33.80;46.30;;;;;;4998225;28;20088;-44
2022/06/23 12:11:34;;;;;;;6.47;1.77;;;33.70;45.80;;;;;;4997930;28;20134;-44
2022/06/23 12:14:02;;;;;;;4.22;2.13;;;33.70;46.50;;;;;;4997081;28;20489;-44
2022/06/23 12:16:28;;;;;;;5.13;1.85;;;33.90;47.40;;;;;;5015744;28;20092;-44
2022/06/23 12:18:58;;;;;;;6.50;2.15;;;34.10;46.10;;;;;;5015254;28;20445;-44
2022/06/23 12:21:30;;;;;;;5.10;1.83;;;34.00;45.40;;;;;;4995980;28;20092;-44
2022/06/23 12:24:01;;;;;;;5.63;2.00;;;34.00;45.60;;;;;;4977165;28;20038;-44
2022/06/23 12:26:29;;;;;;;6.70;2.08;;;34.10;45.00;;;;;;4995739;28;20097;-44
2022/06/23 12:28:58;;;;;;;4.38;1.83;;;34.20;45.60;;;;;;4978223;28;20042;-44
2022/06/23 12:31:36;;;;;;;6.20;2.00;;;34.40;44.80;;;;;;4995737;28;20050;-44
2022/06/23 12:34:12;;;;;;;5.03;2.03;;;34.60;43.90;;;;;;4995429;28;20493;-44
2022/06/23 12:36:42;;;;;;;7.05;2.13;;;34.60;43.90;;;;;;4985187;28;20544;-44
2022/06/23 12:39:12;;;;;;;5.30;2.10;;;34.50;43.70;;;;;;4997089;28;20050;-45
2022/06/23 12:41:42;;;;;;;2.97;1.60;;;34.60;43.10;;;;;;4991019;28;20078;-44
2022/06/23 12:44:14;;;;;;;5.93;2.20;;;34.60;43.10;;;;;;4991405;28;20504;-44
2022/06/23 12:46:44;;;;;;;4.05;2.10;;;34.60;42.90;;;;;;4999376;28;20045;-44
2022/06/23 12:49:44;;;;;;;4.28;1.80;;;34.60;42.90;;;;;;5014796;28;20454;-44
2022/06/23 12:52:21;;;;;;;5.15;1.92;;;34.80;43.50;;;;;;4997828;28;20049;-44
2022/06/23 12:55:22;;;;;;;5.60;2.00;;;34.80;41.80;;;;;;5014656;28;20457;-44
2022/06/23 12:58:02;;;;;;;5.22;1.88;;;34.60;41.70;;;;;;4998053;28;20051;-44
2022/06/23 13:00:45;;;;;;;7.83;2.00;;;34.60;42.10;;;;;;4985028;28;20058;-44
2022/06/23 13:03:15;;;;;;;8.45;2.10;;;34.60;42.20;;;;;;4969505;28;20062;-44
2022/06/23 13:05:47;;;;;;;8.77;1.90;;;34.60;42.00;;;;;;4990775;28;20546;-44
2022/06/23 13:08:20;;;;;;;7.50;1.95;;;34.70;42.60;;;;;;4990473;28;20034;-44
2022/06/23 13:10:50;;;;;;;10.23;2.25;;;34.90;40.80;;;;;;4973239;28;20050;-44
2022/06/23 13:13:21;;;;;;;7.10;2.00;;;34.90;40.90;;;;;;5013389;28;20088;-44
2022/06/23 13:15:50;;;;;;;4.80;2.33;;;34.70;41.40;;;;;;4993776;28;20340;-44
2022/06/23 13:18:22;;;;;;;4.53;2.05;;;34.60;41.30;;;;;;4965517;28;20061;-44
2022/06/23 13:20:51;;;;;;;5.32;2.10;;;34.80;41.00;;;;;;4975643;28;20044;-44